sensor_id;sensor_type;location;lat;lon;timestamp;pressure;altitude;pressure_sealevel;temperature;humidity
67099;BME280;54288;53.046;5.668;2022-11-15T00:00:47;100996.47;;;7.26;100.00
67099;BME280;54288;53.046;5.668;2022-11-15T00:03:31;101006.00;;;7.27;100.00
67099;BME280;54288;53.046;5.668;2022-11-15T00:06:16;101010.38;;;7.22;100.00
67099;BME280;54288;53.046;5.668;2022-11-15T00:09:00;100999.97;;;7.13;100.00
67099;BME280;54288;53.046;5.668;2022-11-15T00:11:44;101005.19;;;7.16;100.00
67099;BME280;54288;53.046;5.668;2022-11-15T00:14:28;101006.06;;;7.11;100.00
67099;BME280;54288;53.046;5.668;2022-11-15T00:17:12;101003.50;;;7.06;100.00
67099;BME280;54288;53.046;5.668;2022-11-15T00:19:57;100996.56;;;7.02;100.00
67099;BME280;54288;53.046;5.668;2022-11-15T00:22:42;100999.19;;;6.93;100.00
67099;BME280;54288;53.046;5.668;2022-11-15T00:25:26;100983.59;;;6.86;100.00
67099;BME280;54288;53.046;5.668;2022-11-15T00:28:11;100989.66;;;6.89;100.00
67099;BME280;54288;53.046;5.668;2022-11-15T00:31:03;100973.22;;;6.80;100.00
67099;BME280;54288;53.046;5.668;2022-11-15T00:33:47;100969.72;;;6.79;100.00
67099;BME280;54288;53.046;5.668;2022-11-15T00:36:34;100981.06;;;6.75;100.00
67099;BME280;54288;53.046;5.668;2022-11-15T00:39:19;100994.06;;;6.68;100.00
67099;BME280;54288;53.046;5.668;2022-11-15T00:42:03;100980.22;;;6.60;100.00
67099;BME280;54288;53.046;5.668;2022-11-15T00:44:47;100983.69;;;6.60;100.00
67099;BME280;54288;53.046;5.668;2022-11-15T00:47:31;100975.91;;;6.57;100.00
67099;BME280;54288;53.046;5.668;2022-11-15T00:50:16;100964.63;;;6.51;100.00
67099;BME280;54288;53.046;5.668;2022-11-15T00:53:00;100968.13;;;6.44;100.00
67099;BME280;54288;53.046;5.668;2022-11-15T00:55:44;100955.97;;;6.37;100.00
67099;BME280;54288;53.046;5.668;2022-11-15T00:58:30;100968.09;;;6.41;100.00
67099;BME280;54288;53.046;5.668;2022-11-15T01:01:15;100958.56;;;6.37;100.00
67099;BME280;54288;53.046;5.668;2022-11-15T01:03:59;100966.38;;;6.37;100.00
67099;BME280;54288;53.046;5.668;2022-11-15T01:06:44;100966.41;;;6.29;100.00
67099;BME280;54288;53.046;5.668;2022-11-15T01:09:28;100961.22;;;6.29;100.00
67099;BME280;54288;53.046;5.668;2022-11-15T01:12:12;100973.34;;;6.17;100.00
67099;BME280;54288;53.046;5.668;2022-11-15T01:14:56;100964.66;;;6.10;100.00
67099;BME280;54288;53.046;5.668;2022-11-15T01:17:40;100965.56;;;6.12;100.00
67099;BME280;54288;53.046;5.668;2022-11-15T01:20:24;100951.69;;;6.06;100.00
67099;BME280;54288;53.046;5.668;2022-11-15T01:23:09;100954.28;;;6.04;100.00
67099;BME280;54288;53.046;5.668;2022-11-15T01:25:59;100946.50;;;6.01;100.00
67099;BME280;54288;53.046;5.668;2022-11-15T01:28:43;100943.03;;;5.98;100.00
67099;BME280;54288;53.046;5.668;2022-11-15T01:31:29;100960.34;;;5.97;100.00
67099;BME280;54288;53.046;5.668;2022-11-15T01:34:13;100952.56;;;5.93;100.00
67099;BME280;54288;53.046;5.668;2022-11-15T01:36:59;100972.47;;;5.97;100.00
67099;BME280;54288;53.046;5.668;2022-11-15T01:39:43;100963.81;;;5.99;100.00
67099;BME280;54288;53.046;5.668;2022-11-15T01:42:28;100950.81;;;6.02;100.00
67099;BME280;54288;53.046;5.668;2022-11-15T01:45:16;100937.81;;;6.05;100.00
67099;BME280;54288;53.046;5.668;2022-11-15T01:48:00;100938.69;;;6.10;100.00
67099;BME280;54288;53.046;5.668;2022-11-15T01:50:45;100938.69;;;6.10;100.00
67099;BME280;54288;53.046;5.668;2022-11-15T01:53:31;100937.81;;;6.10;100.00
67099;BME280;54288;53.046;5.668;2022-11-15T01:56:25;100930.88;;;6.13;100.00
67099;BME280;54288;53.046;5.668;2022-11-15T01:59:12;100923.94;;;6.17;100.00
67099;BME280;54288;53.046;5.668;2022-11-15T02:01:56;100923.06;;;6.16;100.00
67099;BME280;54288;53.046;5.668;2022-11-15T02:04:43;100923.94;;;6.21;100.00
67099;BME280;54288;53.046;5.668;2022-11-15T02:07:30;100916.13;;;6.20;100.00
67099;BME280;54288;53.046;5.668;2022-11-15T02:10:21;100923.94;;;6.24;100.00
67099;BME280;54288;53.046;5.668;2022-11-15T02:13:06;100910.06;;;6.22;100.00
67099;BME280;54288;53.046;5.668;2022-11-15T02:22:37;100906.59;;;6.26;100.00
67099;BME280;54288;53.046;5.668;2022-11-15T02:26:52;100903.13;;;6.27;100.00
67099;BME280;54288;53.046;5.668;2022-11-15T02:34:57;100898.78;;;6.29;100.00
67099;BME280;54288;53.046;5.668;2022-11-15T02:40:57;100897.91;;;6.33;100.00
67099;BME280;54288;53.046;5.668;2022-11-15T02:44:12;100901.38;;;6.35;100.00
67099;BME280;54288;53.046;5.668;2022-11-15T02:47:02;100890.13;;;6.30;100.00
67099;BME280;54288;53.046;5.668;2022-11-15T02:50:09;100878.84;;;6.31;100.00
67099;BME280;54288;53.046;5.668;2022-11-15T02:52:55;100873.63;;;6.30;100.00
67099;BME280;54288;53.046;5.668;2022-11-15T02:55:57;100866.72;;;6.30;100.00
67099;BME280;54288;53.046;5.668;2022-11-15T03:02:17;100866.69;;;6.36;100.00
67099;BME280;54288;53.046;5.668;2022-11-15T03:08:20;100861.47;;;6.39;100.00
67099;BME280;54288;53.046;5.668;2022-11-15T03:11:13;100860.63;;;6.39;100.00
67099;BME280;54288;53.046;5.668;2022-11-15T03:14:24;100852.81;;;6.37;100.00
67099;BME280;54288;53.046;5.668;2022-11-15T03:19:57;100836.34;;;6.37;100.00
67099;BME280;54288;53.046;5.668;2022-11-15T03:22:46;100830.28;;;6.33;100.00
67099;BME280;54288;53.046;5.668;2022-11-15T03:25:34;100829.41;;;6.36;100.00
67099;BME280;54288;53.046;5.668;2022-11-15T03:28:34;100826.81;;;6.40;100.00
67099;BME280;54288;53.046;5.668;2022-11-15T03:31:23;100813.81;;;6.37;100.00
67099;BME280;54288;53.046;5.668;2022-11-15T03:34:43;100821.59;;;6.43;100.00
67099;BME280;54288;53.046;5.668;2022-11-15T03:37:46;100819.81;;;6.45;100.00
67099;BME280;54288;53.046;5.668;2022-11-15T03:40:40;100821.56;;;6.48;100.00
67099;BME280;54288;53.046;5.668;2022-11-15T03:43:46;100827.63;;;6.48;100.00
67099;BME280;54288;53.046;5.668;2022-11-15T03:46:42;100822.44;;;6.50;100.00
67099;BME280;54288;53.046;5.668;2022-11-15T03:49:33;100818.06;;;6.50;100.00
67099;BME280;54288;53.046;5.668;2022-11-15T03:52:20;100833.66;;;6.56;100.00
67099;BME280;54288;53.046;5.668;2022-11-15T03:55:08;100818.03;;;6.56;100.00
67099;BME280;54288;53.046;5.668;2022-11-15T03:57:57;100816.31;;;6.57;100.00
67099;BME280;54288;53.046;5.668;2022-11-15T04:00:42;100812.00;;;6.56;100.00
67099;BME280;54288;53.046;5.668;2022-11-15T04:03:26;100809.38;;;6.60;100.00
67099;BME280;54288;53.046;5.668;2022-11-15T04:06:10;100813.69;;;6.64;100.00
67099;BME280;54288;53.046;5.668;2022-11-15T04:08:54;100809.31;;;6.68;100.00
67099;BME280;54288;53.046;5.668;2022-11-15T04:11:39;100803.25;;;6.72;100.00
67099;BME280;54288;53.046;5.668;2022-11-15T04:14:23;100794.56;;;6.73;100.00
67099;BME280;54288;53.046;5.668;2022-11-15T04:17:07;100803.16;;;6.82;100.00
67099;BME280;54288;53.046;5.668;2022-11-15T04:19:51;100815.31;;;6.85;100.00
67099;BME280;54288;53.046;5.668;2022-11-15T04:22:56;100808.34;;;6.90;100.00
67099;BME280;54288;53.046;5.668;2022-11-15T04:26:03;100813.50;;;6.93;100.00
67099;BME280;54288;53.046;5.668;2022-11-15T04:28:47;100806.56;;;6.95;100.00
67099;BME280;54288;53.046;5.668;2022-11-15T04:31:50;100811.75;;;6.99;100.00
67099;BME280;54288;53.046;5.668;2022-11-15T04:34:34;100806.50;;;7.02;100.00
67099;BME280;54288;53.046;5.668;2022-11-15T04:37:19;100798.69;;;7.04;100.00
67099;BME280;54288;53.046;5.668;2022-11-15T04:40:03;100802.13;;;7.07;100.00
67099;BME280;54288;53.046;5.668;2022-11-15T04:42:48;100803.84;;;7.11;100.00
67099;BME280;54288;53.046;5.668;2022-11-15T04:45:32;100793.41;;;7.14;100.00
67099;BME280;54288;53.046;5.668;2022-11-15T04:48:16;100795.97;;;7.17;100.00
67099;BME280;54288;53.046;5.668;2022-11-15T04:51:00;100794.22;;;7.19;100.00
67099;BME280;54288;53.046;5.668;2022-11-15T04:53:44;100793.31;;;7.26;100.00
67099;BME280;54288;53.046;5.668;2022-11-15T04:56:28;100780.31;;;7.25;100.00
67099;BME280;54288;53.046;5.668;2022-11-15T04:59:12;100791.56;;;7.28;100.00
67099;BME280;54288;53.046;5.668;2022-11-15T05:01:56;100794.09;;;7.34;100.00
67099;BME280;54288;53.046;5.668;2022-11-15T05:04:40;100788.00;;;7.38;100.00
67099;BME280;54288;53.046;5.668;2022-11-15T05:07:24;100787.97;;;7.41;100.00
67099;BME280;54288;53.046;5.668;2022-11-15T05:10:09;100793.16;;;7.46;100.00
67099;BME280;54288;53.046;5.668;2022-11-15T05:12:53;100796.59;;;7.49;100.00
67099;BME280;54288;53.046;5.668;2022-11-15T05:15:37;100784.41;;;7.50;100.00
67099;BME280;54288;53.046;5.668;2022-11-15T05:18:21;100792.16;;;7.57;100.00
67099;BME280;54288;53.046;5.668;2022-11-15T05:21:08;100787.78;;;7.62;100.00
67099;BME280;54288;53.046;5.668;2022-11-15T05:23:52;100790.38;;;7.65;100.00
67099;BME280;54288;53.046;5.668;2022-11-15T05:26:36;100786.88;;;7.68;100.00
67099;BME280;54288;53.046;5.668;2022-11-15T05:29:20;100787.66;;;7.74;100.00
67099;BME280;54288;53.046;5.668;2022-11-15T05:32:06;100778.09;;;7.75;100.00
67099;BME280;54288;53.046;5.668;2022-11-15T05:34:50;100778.88;;;7.81;100.00
67099;BME280;54288;53.046;5.668;2022-11-15T05:37:34;100770.19;;;7.84;100.00
67099;BME280;54288;53.046;5.668;2022-11-15T05:40:18;100770.09;;;7.91;100.00
67099;BME280;54288;53.046;5.668;2022-11-15T05:43:04;100778.75;;;7.96;100.00
67099;BME280;54288;53.046;5.668;2022-11-15T05:45:49;100783.88;;;8.04;100.00
67099;BME280;54288;53.046;5.668;2022-11-15T05:48:36;100784.69;;;8.07;100.00
67099;BME280;54288;53.046;5.668;2022-11-15T05:51:27;100785.53;;;8.09;100.00
67099;BME280;54288;53.046;5.668;2022-11-15T05:54:14;100786.28;;;8.19;100.00
67099;BME280;54288;53.046;5.668;2022-11-15T05:56:59;100781.06;;;8.19;100.00
67099;BME280;54288;53.046;5.668;2022-11-15T05:59:44;100779.28;;;8.25;100.00
67099;BME280;54288;53.046;5.668;2022-11-15T06:02:28;100787.03;;;8.31;100.00
67099;BME280;54288;53.046;5.668;2022-11-15T06:05:12;100773.16;;;8.31;100.00
67099;BME280;54288;53.046;5.668;2022-11-15T06:07:58;100782.72;;;8.32;100.00
67099;BME280;54288;53.046;5.668;2022-11-15T06:10:42;100780.91;;;8.35;100.00
67099;BME280;54288;53.046;5.668;2022-11-15T06:13:27;100782.56;;;8.44;100.00
67099;BME280;54288;53.046;5.668;2022-11-15T06:16:11;100789.47;;;8.48;100.00
67099;BME280;54288;53.046;5.668;2022-11-15T06:18:55;100783.34;;;8.50;100.00
67099;BME280;54288;53.046;5.668;2022-11-15T06:21:39;100783.28;;;8.55;100.00
67099;BME280;54288;53.046;5.668;2022-11-15T06:24:23;100790.19;;;8.57;100.00
67099;BME280;54288;53.046;5.668;2022-11-15T06:27:07;100801.47;;;8.61;100.00
67099;BME280;54288;53.046;5.668;2022-11-15T06:29:51;100790.03;;;8.71;100.00
67099;BME280;54288;53.046;5.668;2022-11-15T06:32:35;100789.13;;;8.72;100.00
67099;BME280;54288;53.046;5.668;2022-11-15T06:35:19;100802.09;;;8.79;100.00
67099;BME280;54288;53.046;5.668;2022-11-15T06:38:06;100807.25;;;8.82;100.00
67099;BME280;54288;53.046;5.668;2022-11-15T06:40:50;100804.63;;;8.82;100.00
67099;BME280;54288;53.046;5.668;2022-11-15T06:43:35;100818.47;;;8.90;100.00
67099;BME280;54288;53.046;5.668;2022-11-15T06:46:19;100821.81;;;9.00;100.00
67099;BME280;54288;53.046;5.668;2022-11-15T06:49:03;100808.75;;;9.00;100.00
67099;BME280;54288;53.046;5.668;2022-11-15T06:51:48;100817.38;;;9.05;100.00
67099;BME280;54288;53.046;5.668;2022-11-15T06:54:32;100812.09;;;9.09;100.00
67099;BME280;54288;53.046;5.668;2022-11-15T06:57:16;100822.44;;;9.15;100.00
67099;BME280;54288;53.046;5.668;2022-11-15T07:00:00;100818.03;;;9.17;100.00
67099;BME280;54288;53.046;5.668;2022-11-15T07:02:44;100821.47;;;9.21;100.00
67099;BME280;54288;53.046;5.668;2022-11-15T07:05:29;100822.31;;;9.24;100.00
67099;BME280;54288;53.046;5.668;2022-11-15T07:08:13;100818.84;;;9.22;100.00
67099;BME280;54288;53.046;5.668;2022-11-15T07:11:03;100827.47;;;9.29;100.00
67099;BME280;54288;53.046;5.668;2022-11-15T07:13:47;100822.22;;;9.30;100.00
67099;BME280;54288;53.046;5.668;2022-11-15T07:16:31;100831.66;;;9.39;100.00
67099;BME280;54288;53.046;5.668;2022-11-15T07:19:15;100829.88;;;9.41;100.00
67099;BME280;54288;53.046;5.668;2022-11-15T07:21:59;100831.56;;;9.45;100.00
67099;BME280;54288;53.046;5.668;2022-11-15T07:24:43;100846.25;;;9.50;100.00
67099;BME280;54288;53.046;5.668;2022-11-15T07:27:28;100845.38;;;9.51;100.00
67099;BME280;54288;53.046;5.668;2022-11-15T07:30:12;100848.84;;;9.53;100.00
67099;BME280;54288;53.046;5.668;2022-11-15T07:32:58;100840.94;;;9.56;100.00
67099;BME280;54288;53.046;5.668;2022-11-15T07:35:43;100844.34;;;9.61;100.00
67099;BME280;54288;53.046;5.668;2022-11-15T07:38:30;100839.16;;;9.58;100.00
67099;BME280;54288;53.046;5.668;2022-11-15T07:41:15;100847.84;;;9.62;100.00
67099;BME280;54288;53.046;5.668;2022-11-15T07:43:59;100845.06;;;9.69;100.00
67099;BME280;54288;53.046;5.668;2022-11-15T07:46:44;100834.66;;;9.68;100.00
67099;BME280;54288;53.046;5.668;2022-11-15T07:49:28;100838.91;;;9.73;100.00
67099;BME280;54288;53.046;5.668;2022-11-15T07:52:13;100844.91;;;9.78;100.00
67099;BME280;54288;53.046;5.668;2022-11-15T07:54:57;100840.47;;;9.83;100.00
67099;BME280;54288;53.046;5.668;2022-11-15T07:57:41;100838.75;;;9.82;100.00
67099;BME280;54288;53.046;5.668;2022-11-15T08:00:25;100828.25;;;9.84;100.00
67099;BME280;54288;53.046;5.668;2022-11-15T08:03:13;100836.94;;;9.86;100.00
67099;BME280;54288;53.046;5.668;2022-11-15T08:05:58;100846.56;;;9.84;100.00
67099;BME280;54288;53.046;5.668;2022-11-15T08:08:42;100848.25;;;9.86;100.00
67099;BME280;54288;53.046;5.668;2022-11-15T08:11:26;100841.31;;;9.84;100.00
67099;BME280;54288;53.046;5.668;2022-11-15T08:14:10;100838.75;;;9.82;100.00
67099;BME280;54288;53.046;5.668;2022-11-15T08:16:55;100840.38;;;9.88;100.00
67099;BME280;54288;53.046;5.668;2022-11-15T08:19:39;100840.25;;;9.95;100.00
67099;BME280;54288;53.046;5.668;2022-11-15T08:22:23;100834.13;;;9.96;100.00
67099;BME280;54288;53.046;5.668;2022-11-15T08:25:07;100847.09;;;10.05;100.00
67099;BME280;54288;53.046;5.668;2022-11-15T08:27:53;100848.69;;;10.12;100.00
67099;BME280;54288;53.046;5.668;2022-11-15T08:30:41;100845.03;;;10.22;100.00
67099;BME280;54288;53.046;5.668;2022-11-15T08:33:26;100838.91;;;10.23;100.00
67099;BME280;54288;53.046;5.668;2022-11-15T08:36:16;100839.66;;;10.28;100.00
67099;BME280;54288;53.046;5.668;2022-11-15T08:39:00;100838.78;;;10.29;100.00
67099;BME280;54288;53.046;5.668;2022-11-15T08:41:44;100838.88;;;10.25;100.00
67099;BME280;54288;53.046;5.668;2022-11-15T08:44:28;100843.19;;;10.27;100.00
67099;BME280;54288;53.046;5.668;2022-11-15T08:47:12;100830.00;;;10.32;100.00
67099;BME280;54288;53.046;5.668;2022-11-15T08:49:57;100838.50;;;10.43;100.00
67099;BME280;54288;53.046;5.668;2022-11-15T08:52:41;100821.94;;;10.42;100.00
67099;BME280;54288;53.046;5.668;2022-11-15T08:55:25;100814.97;;;10.41;100.00
67099;BME280;54288;53.046;5.668;2022-11-15T08:58:09;100819.31;;;10.42;100.00
67099;BME280;54288;53.046;5.668;2022-11-15T09:00:55;100822.81;;;10.43;100.00
67099;BME280;54288;53.046;5.668;2022-11-15T09:03:40;100820.97;;;10.46;100.00
67099;BME280;54288;53.046;5.668;2022-11-15T09:06:24;100809.56;;;10.50;100.00
67099;BME280;54288;53.046;5.668;2022-11-15T09:09:08;100812.03;;;10.56;100.00
67099;BME280;54288;53.046;5.668;2022-11-15T09:11:52;100804.84;;;10.66;100.00
67099;BME280;54288;53.046;5.668;2022-11-15T09:14:36;100802.22;;;10.67;100.00
67099;BME280;54288;53.046;5.668;2022-11-15T09:17:20;100798.81;;;10.64;100.00
67099;BME280;54288;53.046;5.668;2022-11-15T09:20:05;100802.22;;;10.67;100.00
67099;BME280;54288;53.046;5.668;2022-11-15T09:22:49;100807.09;;;10.82;100.00
67099;BME280;54288;53.046;5.668;2022-11-15T09:25:34;100800.91;;;10.86;100.00
67099;BME280;54288;53.046;5.668;2022-11-15T09:28:19;100805.34;;;10.83;100.00
67099;BME280;54288;53.046;5.668;2022-11-15T09:31:04;100808.25;;;10.71;100.00
67099;BME280;54288;53.046;5.668;2022-11-15T09:33:49;100802.00;;;10.76;100.00
67099;BME280;54288;53.046;5.668;2022-11-15T09:36:33;100799.50;;;10.70;100.00
67099;BME280;54288;53.046;5.668;2022-11-15T09:39:17;100804.91;;;10.63;100.00
67099;BME280;54288;53.046;5.668;2022-11-15T09:42:36;100797.25;;;10.55;100.00
67099;BME280;54288;53.046;5.668;2022-11-15T09:45:37;100799.13;;;10.47;100.00
67099;BME280;54288;53.046;5.668;2022-11-15T09:51:44;100801.91;;;10.40;100.00
67099;BME280;54288;53.046;5.668;2022-11-15T09:54:34;100794.94;;;10.39;100.00
67099;BME280;54288;53.046;5.668;2022-11-15T10:03:02;100780.53;;;10.61;100.00
67099;BME280;54288;53.046;5.668;2022-11-15T10:05:30;100783.94;;;10.64;100.00
67099;BME280;54288;53.046;5.668;2022-11-15T10:08:20;100780.09;;;10.80;100.00
67099;BME280;54288;53.046;5.668;2022-11-15T10:10:58;100767.66;;;10.88;100.00
67099;BME280;54288;53.046;5.668;2022-11-15T10:13:27;100786.72;;;10.95;100.00
67099;BME280;54288;53.046;5.668;2022-11-15T10:16:16;100762.38;;;10.91;100.00
67099;BME280;54288;53.046;5.668;2022-11-15T10:19:25;100766.56;;;10.98;100.00
67099;BME280;54288;53.046;5.668;2022-11-15T10:24:42;100775.78;;;11.14;100.00
67099;BME280;54288;53.046;5.668;2022-11-15T10:27:14;100766.97;;;11.18;100.00
67099;BME280;54288;53.046;5.668;2022-11-15T10:29:49;100767.59;;;11.28;100.00
67099;BME280;54288;53.046;5.668;2022-11-15T10:32:18;100765.75;;;11.31;100.00
67099;BME280;54288;53.046;5.668;2022-11-15T10:34:44;100771.66;;;11.39;100.00
67099;BME280;54288;53.046;5.668;2022-11-15T10:37:10;100764.50;;;11.47;100.00
67099;BME280;54288;53.046;5.668;2022-11-15T10:39:36;100766.09;;;11.51;100.00
67099;BME280;54288;53.046;5.668;2022-11-15T10:42:26;100762.47;;;11.58;100.00
67099;BME280;54288;53.046;5.668;2022-11-15T10:44:52;100748.50;;;11.56;100.00
67099;BME280;54288;53.046;5.668;2022-11-15T10:47:28;100754.56;;;11.60;100.00
67099;BME280;54288;53.046;5.668;2022-11-15T10:52:52;100736.22;;;11.58;100.00
67099;BME280;54288;53.046;5.668;2022-11-15T10:55:21;100743.97;;;11.64;100.00
67099;BME280;54288;53.046;5.668;2022-11-15T10:58:30;100738.78;;;11.61;100.00
67099;BME280;54288;53.046;5.668;2022-11-15T11:01:09;100748.34;;;11.64;100.00
67099;BME280;54288;53.046;5.668;2022-11-15T11:03:37;100747.41;;;11.66;100.00
67099;BME280;54288;53.046;5.668;2022-11-15T11:06:10;100751.00;;;11.62;100.00
67099;BME280;54288;53.046;5.668;2022-11-15T11:08:36;100738.78;;;11.61;100.00
67099;BME280;54288;53.046;5.668;2022-11-15T11:11:04;100743.91;;;11.66;100.00
67099;BME280;54288;53.046;5.668;2022-11-15T11:13:35;100731.81;;;11.60;100.00
67099;BME280;54288;53.046;5.668;2022-11-15T11:19:17;100724.75;;;11.62;100.00
67099;BME280;54288;53.046;5.668;2022-11-15T11:24:43;100735.31;;;11.61;100.00
67099;BME280;54288;53.046;5.668;2022-11-15T11:35:38;100708.78;;;12.03;100.00
67099;BME280;54288;53.046;5.668;2022-11-15T11:38:19;100713.66;;;12.15;100.00
67099;BME280;54288;53.046;5.668;2022-11-15T11:49:39;100689.53;;;12.59;96.88
67099;BME280;54288;53.046;5.668;2022-11-15T11:54:58;100676.13;;;12.68;96.64
67099;BME280;54288;53.046;5.668;2022-11-15T12:00:20;100685.28;;;12.82;90.84
67099;BME280;54288;53.046;5.668;2022-11-15T12:06:23;100680.31;;;12.73;88.84
67099;BME280;54288;53.046;5.668;2022-11-15T12:09:07;100686.72;;;12.65;88.97
67099;BME280;54288;53.046;5.668;2022-11-15T12:14:45;100669.75;;;12.49;87.96
67099;BME280;54288;53.046;5.668;2022-11-15T12:17:12;100683.63;;;12.52;88.74
67099;BME280;54288;53.046;5.668;2022-11-15T12:19:39;100690.81;;;12.73;87.85
67099;BME280;54288;53.046;5.668;2022-11-15T12:22:08;100688.66;;;12.60;85.54
67099;BME280;54288;53.046;5.668;2022-11-15T12:24:43;100677.81;;;12.43;84.47
67099;BME280;54288;53.046;5.668;2022-11-15T12:27:19;100689.13;;;12.45;84.11
67099;BME280;54288;53.046;5.668;2022-11-15T12:29:54;100686.16;;;12.55;84.91
67099;BME280;54288;53.046;5.668;2022-11-15T12:32:31;100679.16;;;12.56;83.14
67099;BME280;54288;53.046;5.668;2022-11-15T12:35:00;100681.13;;;12.48;82.92
67099;BME280;54288;53.046;5.668;2022-11-15T12:41:29;100661.19;;;12.42;83.27
67099;BME280;54288;53.046;5.668;2022-11-15T12:43:39;100654.38;;;12.37;84.32
67099;BME280;54288;53.046;5.668;2022-11-15T12:46:11;100657.88;;;12.36;83.90
67099;BME280;54288;53.046;5.668;2022-11-15T12:51:03;100637.63;;;12.12;84.36
67099;BME280;54288;53.046;5.668;2022-11-15T12:53:34;100649.03;;;12.11;85.08
67099;BME280;54288;53.046;5.668;2022-11-15T12:58:56;100642.47;;;11.97;85.68
67099;BME280;54288;53.046;5.668;2022-11-15T13:04:24;100625.84;;;11.96;86.00
67099;BME280;54288;53.046;5.668;2022-11-15T13:07:05;100610.94;;;11.98;86.93
67099;BME280;54288;53.046;5.668;2022-11-15T13:12:07;100608.84;;;12.09;86.73
67099;BME280;54288;53.046;5.668;2022-11-15T13:22:44;100601.84;;;12.08;86.19
67099;BME280;54288;53.046;5.668;2022-11-15T13:30:36;100586.28;;;12.02;86.07
67099;BME280;54288;53.046;5.668;2022-11-15T13:33:17;100583.78;;;11.99;85.83
67099;BME280;54288;53.046;5.668;2022-11-15T13:35:48;100582.06;;;11.98;86.31
67099;BME280;54288;53.046;5.668;2022-11-15T13:38:34;100594.34;;;11.96;86.87
67099;BME280;54288;53.046;5.668;2022-11-15T13:41:22;100579.75;;;11.88;86.72
67099;BME280;54288;53.046;5.668;2022-11-15T13:43:50;100582.44;;;11.86;87.09
67099;BME280;54288;53.046;5.668;2022-11-15T13:46:17;100583.38;;;11.84;87.47
67099;BME280;54288;53.046;5.668;2022-11-15T13:48:45;100566.09;;;11.77;88.11
67099;BME280;54288;53.046;5.668;2022-11-15T13:53:52;100562.84;;;11.69;88.88
67099;BME280;54288;53.046;5.668;2022-11-15T13:56:21;100562.06;;;11.65;89.79
67099;BME280;54288;53.046;5.668;2022-11-15T13:58:47;100563.03;;;11.63;90.68
67099;BME280;54288;53.046;5.668;2022-11-15T14:01:18;100554.44;;;11.56;91.07
67099;BME280;54288;53.046;5.668;2022-11-15T14:03:53;100558.88;;;11.54;92.32
67099;BME280;54288;53.046;5.668;2022-11-15T14:06:22;100559.88;;;11.48;93.30
67099;BME280;54288;53.046;5.668;2022-11-15T14:09:03;100549.56;;;11.43;93.81
67099;BME280;54288;53.046;5.668;2022-11-15T14:11:29;100537.66;;;11.33;94.43
67099;BME280;54288;53.046;5.668;2022-11-15T14:16:38;100536.97;;;11.26;94.54
67099;BME280;54288;53.046;5.668;2022-11-15T14:19:06;100526.72;;;11.17;94.82
67099;BME280;54288;53.046;5.668;2022-11-15T14:21:32;100539.00;;;11.15;94.10
67099;BME280;54288;53.046;5.668;2022-11-15T14:24:19;100533.81;;;11.14;93.77
67099;BME280;54288;53.046;5.668;2022-11-15T14:26:46;100529.63;;;11.08;93.64
67099;BME280;54288;53.046;5.668;2022-11-15T14:29:22;100526.28;;;11.02;93.38
67099;BME280;54288;53.046;5.668;2022-11-15T14:31:48;100512.38;;;11.00;92.84
67099;BME280;54288;53.046;5.668;2022-11-15T14:34:14;100509.78;;;10.98;92.40
67099;BME280;54288;53.046;5.668;2022-11-15T14:36:40;100494.25;;;10.92;91.85
67099;BME280;54288;53.046;5.668;2022-11-15T14:39:05;100508.16;;;10.94;91.20
67099;BME280;54288;53.046;5.668;2022-11-15T14:41:35;100500.38;;;10.91;90.83
67099;BME280;54288;53.046;5.668;2022-11-15T14:44:04;100494.34;;;10.89;90.75
67099;BME280;54288;53.046;5.668;2022-11-15T14:46:30;100492.66;;;10.87;90.26
67099;BME280;54288;53.046;5.668;2022-11-15T14:48:56;100493.63;;;10.83;90.20
67099;BME280;54288;53.046;5.668;2022-11-15T14:51:22;100479.03;;;10.74;90.11
67099;BME280;54288;53.046;5.668;2022-11-15T14:53:48;100477.38;;;10.70;90.27
67099;BME280;54288;53.046;5.668;2022-11-15T14:56:14;100477.47;;;10.67;90.61
67099;BME280;54288;53.046;5.668;2022-11-15T14:58:41;100481.03;;;10.65;91.03
67099;BME280;54288;53.046;5.668;2022-11-15T15:01:18;100483.75;;;10.60;90.98
67099;BME280;54288;53.046;5.668;2022-11-15T15:03:44;100474.28;;;10.56;91.09
67099;BME280;54288;53.046;5.668;2022-11-15T15:06:10;100468.34;;;10.50;91.15
67099;BME280;54288;53.046;5.668;2022-11-15T15:08:38;100478.81;;;10.50;91.50
67099;BME280;54288;53.046;5.668;2022-11-15T15:11:13;100470.25;;;10.43;91.72
67099;BME280;54288;53.046;5.668;2022-11-15T15:13:40;100476.38;;;10.42;91.60
67099;BME280;54288;53.046;5.668;2022-11-15T15:16:05;100475.44;;;10.45;92.18
67099;BME280;54288;53.046;5.668;2022-11-15T15:18:31;100459.94;;;10.37;92.08
67099;BME280;54288;53.046;5.668;2022-11-15T15:20:58;100471.31;;;10.36;91.56
67099;BME280;54288;53.046;5.668;2022-11-15T15:23:27;100468.78;;;10.33;91.45
67099;BME280;54288;53.046;5.668;2022-11-15T15:25:56;100468.03;;;10.28;91.17
67099;BME280;54288;53.046;5.668;2022-11-15T15:28:22;100446.47;;;10.19;91.38
67099;BME280;54288;53.046;5.668;2022-11-15T15:30:48;100432.69;;;10.12;91.39
67099;BME280;54288;53.046;5.668;2022-11-15T15:33:15;100451.00;;;10.12;91.43
67099;BME280;54288;53.046;5.668;2022-11-15T15:35:41;100456.09;;;10.17;91.89
67099;BME280;54288;53.046;5.668;2022-11-15T15:38:11;100450.94;;;10.15;91.16
67099;BME280;54288;53.046;5.668;2022-11-15T15:40:37;100441.44;;;10.11;91.94
67099;BME280;54288;53.046;5.668;2022-11-15T15:43:03;100436.34;;;10.05;91.94
67099;BME280;54288;53.046;5.668;2022-11-15T15:45:30;100433.84;;;9.99;91.77
67099;BME280;54288;53.046;5.668;2022-11-15T15:47:56;100425.25;;;9.94;92.31
67099;BME280;54288;53.046;5.668;2022-11-15T15:52:56;100424.41;;;9.92;92.40